Time;durP1;ratioP1;P1;durP2;ratioP2;P2;SDS_P1;SDS_P2;PMS_P1;PMS_P2;Temp;Humidity;BMP_temperature;BMP_pressure;BME280_temperature;BME280_humidity;BME280_pressure;Samples;Min_cycle;Max_cycle;Signal;HPM_P1;HPM_P2
2023/12/20 00:00:00;;;;;;;18.67;7.47;;;4.80;99.90;;;;;;4215276;28;20212;-77
2023/12/20 00:02:02;;;;;;;15.17;6.80;;;4.80;99.90;;;;;;4218194;28;20484;-75
2023/12/20 00:04:04;;;;;;;13.73;6.57;;;4.80;99.90;;;;;;4216885;28;20483;-78
2023/12/20 00:06:06;;;;;;;14.47;6.90;;;4.80;99.90;;;;;;4219733;28;20450;-77
2023/12/20 00:08:08;;;;;;;14.57;6.57;;;4.80;99.90;;;;;;4213655;28;20507;-78
2023/12/20 00:10:09;;;;;;;13.87;6.93;;;4.80;99.90;;;;;;4219503;28;20458;-75
2023/12/20 00:12:11;;;;;;;13.30;6.00;;;4.80;99.90;;;;;;4221716;28;20571;-75
2023/12/20 00:14:14;;;;;;;15.97;6.87;;;4.80;99.90;;;;;;4221989;28;20518;-76
2023/12/20 00:16:16;;;;;;;12.93;6.67;;;4.80;99.90;;;;;;4216075;28;20445;-76
2023/12/20 00:18:18;;;;;;;11.47;6.17;;;4.80;99.90;;;;;;4217342;28;20445;-77
2023/12/20 00:20:20;;;;;;;12.33;6.40;;;4.80;99.90;;;;;;4215867;28;20466;-77
2023/12/20 00:22:22;;;;;;;14.17;6.53;;;4.80;99.90;;;;;;4214647;28;20485;-77
2023/12/20 00:24:24;;;;;;;12.60;5.97;;;4.80;99.90;;;;;;4222209;28;20453;-76
2023/12/20 00:26:28;;;;;;;13.60;5.97;;;4.70;99.90;;;;;;4214316;28;20445;-77
2023/12/20 00:28:30;;;;;;;13.27;6.40;;;4.80;99.90;;;;;;4216070;28;20438;-75
2023/12/20 00:30:33;;;;;;;14.77;6.40;;;4.80;99.90;;;;;;4213292;28;20458;-75
2023/12/20 00:32:36;;;;;;;15.87;5.90;;;4.70;99.90;;;;;;4223119;28;21107;-76
2023/12/20 00:34:38;;;;;;;15.23;6.40;;;4.70;99.90;;;;;;4215839;28;20444;-77
2023/12/20 00:36:39;;;;;;;11.53;5.50;;;4.80;99.90;;;;;;4221807;28;20522;-75
2023/12/20 00:38:40;;;;;;;13.83;5.87;;;4.70;99.90;;;;;;4219006;28;20439;-75
2023/12/20 00:40:42;;;;;;;12.00;5.60;;;4.70;99.90;;;;;;4226079;28;20474;-75
2023/12/20 00:42:46;;;;;;;11.20;5.27;;;4.70;99.90;;;;;;4216291;28;20591;-75
2023/12/20 00:44:50;;;;;;;11.80;5.73;;;4.70;99.90;;;;;;4214553;28;20485;-75
2023/12/20 00:46:53;;;;;;;11.10;4.77;;;4.70;99.90;;;;;;4215063;28;20965;-76
2023/12/20 00:48:55;;;;;;;11.03;5.30;;;4.70;99.90;;;;;;4212483;28;20442;-79
2023/12/20 00:50:57;;;;;;;10.87;5.73;;;4.70;99.90;;;;;;4213321;28;20452;-76
2023/12/20 00:52:59;;;;;;;9.90;4.97;;;4.60;99.90;;;;;;4211126;28;20454;-76
2023/12/20 00:55:01;;;;;;;8.70;4.47;;;4.70;99.90;;;;;;4214902;28;21013;-76
2023/12/20 00:57:03;;;;;;;9.03;4.70;;;4.70;99.90;;;;;;4215454;28;20480;-76
2023/12/20 00:59:05;;;;;;;11.00;5.03;;;4.70;99.90;;;;;;4214748;28;20445;-75
2023/12/20 01:01:07;;;;;;;12.40;5.17;;;4.70;99.90;;;;;;4214694;28;20511;-75
2023/12/20 01:03:09;;;;;;;9.03;4.50;;;4.70;99.90;;;;;;4214677;28;20953;-75
2023/12/20 01:05:11;;;;;;;10.53;4.70;;;4.70;99.90;;;;;;4216866;28;20449;-77
2023/12/20 01:07:13;;;;;;;12.13;4.97;;;4.70;99.90;;;;;;4220062;28;20446;-75
2023/12/20 01:09:14;;;;;;;9.40;4.93;;;4.70;99.90;;;;;;4212831;28;20447;-76
2023/12/20 01:11:16;;;;;;;10.00;4.63;;;4.70;99.90;;;;;;4210677;28;20460;-76
2023/12/20 01:13:18;;;;;;;7.17;3.97;;;4.70;99.90;;;;;;4214248;28;20215;-77
2023/12/20 01:15:20;;;;;;;10.67;4.57;;;4.60;99.90;;;;;;4211675;28;20442;-76
2023/12/20 01:17:22;;;;;;;11.17;4.43;;;4.60;99.90;;;;;;4213155;28;21043;-76
2023/12/20 01:19:25;;;;;;;9.73;4.33;;;4.70;99.90;;;;;;4216060;28;20448;-78
2023/12/20 01:21:27;;;;;;;8.90;4.23;;;4.70;99.90;;;;;;4215576;28;20482;-75
2023/12/20 01:23:29;;;;;;;8.93;3.87;;;4.70;99.90;;;;;;4215159;28;20476;-76
2023/12/20 01:25:30;;;;;;;7.80;4.00;;;4.70;99.90;;;;;;4215399;28;20449;-76
2023/12/20 01:27:31;;;;;;;9.77;4.10;;;4.60;99.90;;;;;;4214554;28;20516;-78
2023/12/20 01:29:33;;;;;;;8.20;4.17;;;4.70;99.90;;;;;;4219451;28;20441;-76
2023/12/20 01:31:35;;;;;;;10.27;3.93;;;4.70;99.90;;;;;;4217060;28;20458;-77
2023/12/20 01:33:37;;;;;;;8.93;3.97;;;4.70;99.90;;;;;;4211921;28;20446;-77
2023/12/20 01:35:41;;;;;;;7.20;3.73;;;4.60;99.90;;;;;;4213799;28;20537;-76
2023/12/20 01:37:42;;;;;;;7.53;3.90;;;4.60;99.90;;;;;;4220663;28;20869;-76
2023/12/20 01:39:44;;;;;;;7.80;3.83;;;4.70;99.90;;;;;;4215995;28;20446;-76
2023/12/20 01:41:46;;;;;;;9.37;4.03;;;4.60;99.90;;;;;;4219873;28;20505;-77
2023/12/20 01:43:48;;;;;;;7.20;3.80;;;4.60;99.90;;;;;;4218769;28;20444;-76
2023/12/20 01:45:50;;;;;;;6.70;3.47;;;4.60;99.90;;;;;;4217207;28;20463;-76
2023/12/20 01:47:52;;;;;;;6.50;3.50;;;4.60;99.90;;;;;;4216668;28;20502;-77
2023/12/20 01:49:56;;;;;;;7.00;3.53;;;4.60;99.90;;;;;;4216040;28;20479;-76
2023/12/20 01:52:00;;;;;;;7.47;3.90;;;4.60;99.90;;;;;;4213043;28;20852;-76
2023/12/20 01:54:02;;;;;;;6.80;3.57;;;4.60;99.90;;;;;;4225287;28;20532;-77
2023/12/20 01:56:04;;;;;;;7.10;3.33;;;4.60;99.90;;;;;;4196061;28;20517;-75
2023/12/20 01:58:07;;;;;;;6.87;3.27;;;4.60;99.90;;;;;;4211917;28;20442;-76
2023/12/20 02:00:10;;;;;;;6.07;3.20;;;4.60;99.90;;;;;;4212439;28;20447;-76
2023/12/20 02:02:13;;;;;;;7.97;3.03;;;4.60;99.90;;;;;;4217928;28;20492;-76
2023/12/20 02:04:15;;;;;;;6.73;3.20;;;4.60;99.90;;;;;;4217377;28;21019;-80
2023/12/20 02:06:19;;;;;;;6.37;3.37;;;4.60;99.90;;;;;;4221306;28;20543;-77
2023/12/20 02:08:22;;;;;;;6.07;3.33;;;4.60;99.90;;;;;;4213510;28;20449;-76
2023/12/20 02:10:24;;;;;;;5.40;3.10;;;4.60;99.90;;;;;;4212418;28;20499;-77
2023/12/20 02:12:28;;;;;;;7.47;3.60;;;4.60;99.90;;;;;;4215060;28;20452;-78
2023/12/20 02:14:29;;;;;;;8.77;3.47;;;4.60;99.90;;;;;;4211057;28;20507;-76
2023/12/20 02:16:31;;;;;;;7.33;3.60;;;4.60;99.90;;;;;;4213745;28;20805;-77
2023/12/20 02:18:33;;;;;;;6.53;3.20;;;4.60;99.90;;;;;;4214005;28;20648;-77
2023/12/20 02:20:34;;;;;;;6.47;3.30;;;4.60;99.90;;;;;;4209848;28;20457;-78
2023/12/20 02:22:38;;;;;;;6.03;3.20;;;4.60;99.90;;;;;;4212079;28;20503;-76
2023/12/20 02:24:40;;;;;;;5.30;2.90;;;4.60;99.90;;;;;;4192890;28;20204;-77
2023/12/20 02:26:42;;;;;;;7.10;3.40;;;4.60;99.90;;;;;;4210579;28;20463;-77
2023/12/20 02:28:44;;;;;;;6.33;3.13;;;4.60;99.90;;;;;;4214747;28;20453;-77
2023/12/20 02:30:45;;;;;;;6.43;3.60;;;4.60;99.90;;;;;;4213015;28;20926;-78
2023/12/20 02:32:47;;;;;;;6.60;3.07;;;4.60;99.90;;;;;;4211925;28;20437;-77
2023/12/20 02:34:49;;;;;;;7.17;3.37;;;4.60;99.90;;;;;;4211823;28;20212;-76
2023/12/20 02:36:51;;;;;;;8.90;3.40;;;4.60;99.90;;;;;;4214334;28;20441;-77
2023/12/20 02:38:54;;;;;;;6.30;3.00;;;4.60;99.90;;;;;;4212838;28;20456;-76
2023/12/20 02:40:56;;;;;;;7.83;3.57;;;4.60;99.90;;;;;;4209496;28;20445;-76
2023/12/20 02:42:58;;;;;;;6.47;3.30;;;4.60;99.90;;;;;;4211045;28;21269;-76
2023/12/20 02:44:59;;;;;;;6.57;3.13;;;4.60;99.90;;;;;;4211846;28;21207;-75
2023/12/20 02:47:01;;;;;;;8.13;3.60;;;4.60;99.90;;;;;;4212196;28;20452;-77
2023/12/20 02:49:03;;;;;;;6.37;3.50;;;4.60;99.90;;;;;;4212182;28;20443;-76
2023/12/20 02:51:06;;;;;;;5.27;2.90;;;4.60;99.90;;;;;;4209985;28;21006;-75
2023/12/20 02:53:07;;;;;;;5.33;3.30;;;4.60;99.90;;;;;;4216535;28;20454;-75
2023/12/20 02:55:13;;;;;;;8.60;3.50;;;4.60;99.90;;;;;;4213263;28;20450;-75
2023/12/20 02:57:16;;;;;;;6.87;3.80;;;4.60;99.90;;;;;;4215592;28;20938;-76
2023/12/20 02:59:18;;;;;;;12.70;3.90;;;4.60;99.90;;;;;;4212168;28;20441;-76
2023/12/20 03:01:20;;;;;;;8.73;3.33;;;4.60;99.90;;;;;;4211506;28;20526;-75
2023/12/20 03:03:22;;;;;;;6.10;3.27;;;4.60;99.90;;;;;;4211339;28;20507;-77
2023/12/20 03:05:23;;;;;;;8.83;3.77;;;4.60;99.90;;;;;;4213363;28;20449;-78
2023/12/20 03:07:25;;;;;;;7.43;3.47;;;4.60;99.90;;;;;;4210040;28;20458;-77
2023/12/20 03:09:27;;;;;;;6.80;3.40;;;4.60;99.90;;;;;;4207643;28;20444;-76
2023/12/20 03:11:31;;;;;;;7.63;3.67;;;4.60;99.90;;;;;;4217867;28;20457;-76
2023/12/20 03:13:33;;;;;;;7.33;3.70;;;4.60;99.90;;;;;;4207724;28;20449;-77
2023/12/20 03:15:35;;;;;;;7.43;3.83;;;4.60;99.90;;;;;;4199002;28;20443;-77
2023/12/20 03:17:36;;;;;;;7.40;3.50;;;4.60;99.90;;;;;;4207392;28;20507;-76
2023/12/20 03:19:38;;;;;;;7.20;3.93;;;4.60;99.90;;;;;;4212681;28;20944;-76
2023/12/20 03:21:40;;;;;;;6.77;3.53;;;4.60;99.90;;;;;;4211810;28;21101;-77
2023/12/20 03:23:43;;;;;;;7.07;4.03;;;4.60;99.90;;;;;;4212812;28;20952;-77
2023/12/20 03:25:44;;;;;;;8.83;4.47;;;4.60;99.90;;;;;;4220762;28;20542;-76
2023/12/20 03:27:47;;;;;;;6.87;3.87;;;4.60;99.90;;;;;;4216671;28;20480;-77
2023/12/20 03:29:49;;;;;;;9.50;4.10;;;4.60;99.90;;;;;;4212126;28;20617;-76
2023/12/20 03:31:51;;;;;;;7.80;3.70;;;4.60;99.90;;;;;;4218208;28;20996;-76
2023/12/20 03:33:53;;;;;;;8.43;3.73;;;4.60;99.90;;;;;;4214836;28;20944;-76
2023/12/20 03:35:55;;;;;;;7.57;3.90;;;4.60;99.90;;;;;;4216633;28;20464;-77
2023/12/20 03:37:59;;;;;;;8.63;3.93;;;4.60;99.90;;;;;;4211649;28;20549;-76
2023/12/20 03:40:01;;;;;;;10.47;3.90;;;4.70;99.90;;;;;;4214266;28;20935;-78
2023/12/20 03:42:04;;;;;;;8.63;4.30;;;4.60;99.90;;;;;;4212782;28;20537;-78
2023/12/20 03:44:07;;;;;;;7.93;4.03;;;4.70;99.90;;;;;;4213240;28;20437;-77
2023/12/20 03:46:08;;;;;;;8.30;4.10;;;4.70;99.90;;;;;;4213633;28;20842;-76
2023/12/20 03:48:10;;;;;;;8.27;4.30;;;4.60;99.90;;;;;;4214686;28;20477;-75
2023/12/20 03:50:11;;;;;;;10.33;4.73;;;4.70;99.90;;;;;;4215476;28;20854;-79
2023/12/20 03:52:13;;;;;;;11.80;4.73;;;4.70;99.90;;;;;;4218471;28;20491;-77
2023/12/20 03:54:14;;;;;;;11.23;4.87;;;4.70;99.90;;;;;;4200733;28;20571;-79
2023/12/20 03:56:16;;;;;;;9.97;4.80;;;4.70;99.90;;;;;;4221312;28;20441;-78
2023/12/20 03:58:18;;;;;;;11.37;5.37;;;4.70;99.90;;;;;;4199360;28;20206;-76
2023/12/20 04:00:21;;;;;;;14.20;5.77;;;4.70;99.90;;;;;;4229064;28;20441;-77
2023/12/20 04:02:22;;;;;;;13.07;5.80;;;4.70;99.90;;;;;;4213683;28;20485;-78
2023/12/20 04:04:24;;;;;;;12.40;5.93;;;4.70;99.90;;;;;;4213604;28;20543;-79
2023/12/20 04:06:26;;;;;;;14.87;6.80;;;4.70;99.90;;;;;;4212904;28;20827;-77
2023/12/20 04:08:28;;;;;;;15.17;6.53;;;4.70;99.90;;;;;;4216997;28;20508;-77
2023/12/20 04:10:29;;;;;;;14.33;6.60;;;4.70;99.90;;;;;;4216292;28;20444;-76
2023/12/20 04:12:31;;;;;;;15.73;6.90;;;4.80;99.90;;;;;;4218760;28;20967;-77
2023/12/20 04:14:33;;;;;;;13.43;6.43;;;4.70;99.90;;;;;;4216919;28;20269;-76
2023/12/20 04:16:36;;;;;;;13.77;6.90;;;4.70;99.90;;;;;;4217913;28;20497;-76
2023/12/20 04:18:38;;;;;;;18.30;6.60;;;4.70;99.90;;;;;;4218911;28;20527;-75
2023/12/20 04:20:40;;;;;;;20.00;7.77;;;4.70;99.90;;;;;;4215335;28;20935;-76
2023/12/20 04:22:42;;;;;;;18.50;6.57;;;4.70;99.90;;;;;;4214350;28;20568;-76
2023/12/20 04:24:44;;;;;;;14.37;6.70;;;4.70;99.90;;;;;;4220055;28;20891;-77
2023/12/20 04:26:46;;;;;;;14.43;6.77;;;4.70;99.90;;;;;;4217955;28;20497;-76
2023/12/20 04:28:47;;;;;;;16.67;7.10;;;4.70;99.90;;;;;;4215453;28;20458;-78
2023/12/20 04:30:49;;;;;;;14.80;6.50;;;4.80;99.90;;;;;;4213477;28;20456;-77
2023/12/20 04:32:53;;;;;;;17.93;6.97;;;4.80;99.90;;;;;;4209443;28;20210;-78
2023/12/20 04:34:55;;;;;;;17.40;7.03;;;4.70;99.90;;;;;;4217622;28;20446;-76
2023/12/20 04:36:56;;;;;;;17.17;6.80;;;4.80;99.90;;;;;;4218113;28;20463;-78
2023/12/20 04:38:57;;;;;;;13.40;6.00;;;4.80;99.90;;;;;;4223070;28;20440;-77
2023/12/20 04:40:59;;;;;;;16.57;6.37;;;4.80;99.90;;;;;;4221930;28;20438;-78
2023/12/20 04:43:01;;;;;;;17.30;6.90;;;4.80;99.90;;;;;;4221949;28;20227;-77
2023/12/20 04:45:03;;;;;;;14.07;5.90;;;4.70;99.90;;;;;;4216326;28;20508;-78
2023/12/20 04:47:05;;;;;;;14.73;6.20;;;4.70;99.90;;;;;;4221069;28;20514;-78
2023/12/20 04:49:09;;;;;;;15.30;6.27;;;4.70;99.90;;;;;;4216361;28;20438;-77
2023/12/20 04:51:10;;;;;;;18.57;6.70;;;4.80;99.90;;;;;;4215778;28;21220;-77
2023/12/20 04:53:12;;;;;;;17.17;6.57;;;4.80;99.90;;;;;;4219787;28;20957;-77
2023/12/20 04:55:13;;;;;;;15.43;6.37;;;4.80;99.90;;;;;;4218268;28;20857;-78
2023/12/20 04:57:15;;;;;;;14.50;6.13;;;4.80;99.90;;;;;;4221697;28;20472;-78
2023/12/20 04:59:17;;;;;;;13.87;6.53;;;4.80;99.90;;;;;;4214611;28;20442;-77
2023/12/20 05:01:18;;;;;;;14.83;6.73;;;4.80;99.90;;;;;;4216793;28;20886;-75
2023/12/20 05:03:20;;;;;;;17.00;6.43;;;4.80;99.90;;;;;;4214212;28;20479;-77
2023/12/20 05:05:23;;;;;;;19.27;7.03;;;4.70;99.90;;;;;;4202067;28;20222;-77
2023/12/20 05:07:24;;;;;;;13.73;6.10;;;4.80;99.90;;;;;;4196682;28;21019;-77
2023/12/20 05:09:26;;;;;;;16.17;6.60;;;4.80;99.90;;;;;;4209977;28;20433;-78
2023/12/20 05:11:27;;;;;;;16.53;6.43;;;4.80;99.90;;;;;;4218142;28;20807;-77
2023/12/20 05:13:29;;;;;;;11.10;5.70;;;4.80;99.90;;;;;;4212074;28;20456;-77
2023/12/20 05:15:31;;;;;;;18.40;6.60;;;4.80;99.90;;;;;;4211295;28;20206;-76
2023/12/20 05:17:32;;;;;;;16.47;6.47;;;4.90;99.90;;;;;;4211825;28;21842;-77
2023/12/20 05:19:35;;;;;;;14.23;6.47;;;4.90;99.90;;;;;;4215015;28;20485;-76
2023/12/20 05:21:38;;;;;;;15.57;6.80;;;4.90;99.90;;;;;;4213311;28;20241;-77
2023/12/20 05:23:39;;;;;;;14.57;6.83;;;4.90;99.90;;;;;;4217922;28;20478;-77
2023/12/20 05:25:41;;;;;;;18.23;7.13;;;4.90;99.90;;;;;;4215705;28;20498;-77
2023/12/20 05:27:42;;;;;;;15.30;7.07;;;4.80;99.90;;;;;;4219649;28;20293;-77
2023/12/20 05:29:44;;;;;;;18.53;7.20;;;4.80;99.90;;;;;;4223991;28;20437;-77
2023/12/20 05:31:46;;;;;;;16.80;6.90;;;4.80;99.90;;;;;;4217298;28;20476;-76
2023/12/20 05:33:48;;;;;;;15.27;6.93;;;4.90;99.90;;;;;;4197062;28;20455;-76
2023/12/20 05:35:50;;;;;;;15.80;6.97;;;4.90;99.90;;;;;;4213171;28;20444;-76
2023/12/20 05:37:53;;;;;;;18.07;7.20;;;4.90;99.90;;;;;;4214231;28;20450;-76
2023/12/20 05:39:55;;;;;;;17.90;7.23;;;4.80;99.90;;;;;;4219600;28;20460;-77
2023/12/20 05:41:57;;;;;;;15.17;6.57;;;4.80;99.90;;;;;;4214642;28;20524;-76
2023/12/20 05:44:02;;;;;;;15.40;6.70;;;4.80;99.90;;;;;;4217045;28;20852;-76
2023/12/20 05:46:04;;;;;;;13.93;7.03;;;4.80;99.90;;;;;;4220545;28;20470;-76
2023/12/20 05:48:07;;;;;;;15.07;6.73;;;4.90;99.90;;;;;;4215708;28;20451;-77
2023/12/20 05:50:09;;;;;;;12.57;6.10;;;4.80;99.90;;;;;;4217243;28;20445;-78
2023/12/20 05:52:10;;;;;;;14.50;6.60;;;4.80;99.90;;;;;;4221075;28;20560;-77
2023/12/20 05:54:13;;;;;;;13.20;5.97;;;4.70;99.90;;;;;;4213884;28;21031;-77
2023/12/20 05:56:15;;;;;;;13.57;5.90;;;4.80;99.90;;;;;;4211189;28;20905;-76
2023/12/20 05:58:17;;;;;;;15.07;5.80;;;4.80;99.90;;;;;;4213788;28;20500;-79
2023/12/20 06:00:19;;;;;;;12.43;5.73;;;4.80;99.90;;;;;;4214234;28;20517;-76
2023/12/20 06:02:23;;;;;;;15.23;6.23;;;4.80;99.90;;;;;;4217815;28;20566;-76
2023/12/20 06:04:25;;;;;;;13.63;5.93;;;4.80;99.90;;;;;;4211732;28;20446;-78
2023/12/20 06:06:27;;;;;;;11.83;6.00;;;4.80;99.90;;;;;;4210752;28;20536;-77
2023/12/20 06:08:28;;;;;;;13.27;6.10;;;4.80;99.90;;;;;;4212272;28;20449;-76
2023/12/20 06:10:31;;;;;;;13.63;6.00;;;4.80;99.90;;;;;;4218673;28;20453;-77
2023/12/20 06:12:35;;;;;;;15.03;5.53;;;4.80;99.90;;;;;;4214507;28;20236;-77
2023/12/20 06:14:37;;;;;;;12.27;5.80;;;4.70;99.90;;;;;;4212911;28;20537;-78
2023/12/20 06:16:39;;;;;;;14.50;5.97;;;4.70;99.90;;;;;;4209906;28;20535;-77
2023/12/20 06:18:41;;;;;;;13.30;5.53;;;4.70;99.90;;;;;;4221006;28;20441;-77
2023/12/20 06:20:42;;;;;;;15.10;6.00;;;4.70;99.90;;;;;;4216825;28;20800;-76
2023/12/20 06:22:44;;;;;;;13.67;6.30;;;4.70;99.90;;;;;;4194315;28;20481;-77
2023/12/20 06:24:46;;;;;;;12.30;5.60;;;4.70;99.90;;;;;;4215447;28;20625;-78
2023/12/20 06:26:49;;;;;;;18.67;6.80;;;4.70;99.90;;;;;;4211528;28;20454;-77
2023/12/20 06:28:51;;;;;;;13.93;5.73;;;4.60;99.90;;;;;;4215421;28;20544;-78
2023/12/20 06:30:54;;;;;;;12.40;5.20;;;4.60;99.90;;;;;;4212344;28;20500;-77
2023/12/20 06:32:57;;;;;;;12.40;5.80;;;4.60;99.90;;;;;;4211320;28;20434;-77
2023/12/20 06:34:59;;;;;;;14.83;6.30;;;4.60;99.90;;;;;;4211181;28;20462;-77
2023/12/20 06:37:00;;;;;;;14.23;6.57;;;4.50;99.90;;;;;;4212666;28;20441;-77
2023/12/20 06:39:04;;;;;;;16.73;7.00;;;4.50;99.90;;;;;;4215753;28;21086;-77
2023/12/20 06:41:06;;;;;;;18.43;7.77;;;4.50;99.90;;;;;;4216645;28;20233;-76
2023/12/20 06:43:10;;;;;;;17.27;7.17;;;4.40;99.90;;;;;;4210418;28;20486;-78
2023/12/20 06:45:12;;;;;;;19.80;8.03;;;4.40;99.90;;;;;;4212061;28;20863;-77
2023/12/20 06:47:15;;;;;;;15.07;7.27;;;4.40;99.90;;;;;;4209592;28;20453;-78
2023/12/20 06:49:16;;;;;;;16.30;7.60;;;4.40;99.90;;;;;;4209106;28;20438;-76
2023/12/20 06:51:20;;;;;;;17.53;7.93;;;4.40;99.90;;;;;;4208913;28;20461;-77
2023/12/20 06:53:21;;;;;;;20.57;7.77;;;4.40;99.90;;;;;;4216332;28;20222;-78
2023/12/20 06:55:22;;;;;;;13.70;6.30;;;4.30;99.90;;;;;;4215816;28;20458;-76
2023/12/20 06:57:25;;;;;;;12.57;5.80;;;4.40;99.90;;;;;;4218410;28;20445;-77
2023/12/20 06:59:29;;;;;;;9.83;5.60;;;4.40;99.90;;;;;;4210947;28;20308;-76
2023/12/20 07:01:31;;;;;;;11.17;5.53;;;4.40;99.90;;;;;;4213840;28;20554;-78
2023/12/20 07:03:32;;;;;;;14.97;5.27;;;4.40;99.90;;;;;;4211524;28;20896;-78
2023/12/20 07:05:34;;;;;;;9.33;4.80;;;4.30;99.90;;;;;;4211860;28;20458;-77
2023/12/20 07:07:35;;;;;;;10.67;4.10;;;4.30;99.90;;;;;;4215346;28;20439;-78
2023/12/20 07:09:38;;;;;;;13.33;4.90;;;4.30;99.90;;;;;;4216284;28;20549;-82
2023/12/20 07:11:40;;;;;;;10.17;4.80;;;4.20;99.90;;;;;;4211262;28;20463;-77
2023/12/20 07:13:42;;;;;;;13.00;5.20;;;4.20;99.90;;;;;;4216421;28;20433;-77
2023/12/20 07:15:45;;;;;;;12.67;4.53;;;4.20;99.90;;;;;;4217088;28;20873;-77
2023/12/20 07:17:47;;;;;;;10.27;5.00;;;4.20;99.90;;;;;;4211242;28;20460;-79
2023/12/20 07:19:49;;;;;;;11.60;4.50;;;4.20;99.90;;;;;;4212037;28;20474;-76
2023/12/20 07:21:51;;;;;;;10.43;4.67;;;4.20;99.90;;;;;;4211306;28;20534;-76
2023/12/20 07:23:53;;;;;;;9.13;3.97;;;4.10;99.90;;;;;;4213118;28;20486;-77
2023/12/20 07:25:55;;;;;;;9.87;3.97;;;4.00;99.90;;;;;;4213191;28;21175;-78
2023/12/20 07:27:57;;;;;;;10.87;4.30;;;4.20;99.90;;;;;;4215915;28;20966;-76
2023/12/20 07:29:58;;;;;;;9.83;3.40;;;4.20;99.90;;;;;;4210577;28;20445;-76
2023/12/20 07:32:02;;;;;;;9.13;3.67;;;4.20;99.90;;;;;;4213629;28;20973;-80
2023/12/20 07:34:03;;;;;;;9.97;4.17;;;4.10;99.90;;;;;;4214262;28;21135;-78
2023/12/20 07:36:05;;;;;;;11.17;3.80;;;4.20;99.90;;;;;;4217162;28;20447;-77
2023/12/20 07:38:06;;;;;;;8.70;3.27;;;4.10;99.90;;;;;;4201351;28;20683;-77
2023/12/20 07:40:12;;;;;;;9.30;3.60;;;4.10;99.90;;;;;;4218787;28;20452;-77
2023/12/20 07:42:14;;;;;;;12.23;3.50;;;4.10;99.90;;;;;;4213658;28;21074;-77
2023/12/20 07:44:16;;;;;;;8.43;3.30;;;4.10;99.90;;;;;;4217498;28;20476;-80
2023/12/20 07:46:18;;;;;;;9.10;3.40;;;4.10;99.90;;;;;;4216520;28;20444;-77
2023/12/20 07:48:22;;;;;;;7.80;3.43;;;4.10;99.90;;;;;;4213241;28;20445;-78
2023/12/20 07:50:24;;;;;;;10.73;3.40;;;4.10;99.90;;;;;;4214684;28;20551;-77
2023/12/20 07:52:27;;;;;;;8.97;3.33;;;4.10;99.90;;;;;;4216103;28;20529;-77
2023/12/20 07:54:28;;;;;;;6.23;3.03;;;4.10;99.90;;;;;;4215121;28;21060;-77
2023/12/20 07:56:30;;;;;;;12.67;2.80;;;4.10;99.90;;;;;;4212940;28;20448;-77
2023/12/20 07:58:32;;;;;;;5.97;2.80;;;4.10;99.90;;;;;;4214723;28;20509;-77
2023/12/20 08:00:34;;;;;;;7.77;2.57;;;4.20;99.90;;;;;;4213694;28;21051;-78
2023/12/20 08:02:36;;;;;;;8.17;2.30;;;4.10;99.90;;;;;;4216045;28;20528;-77
2023/12/20 08:04:40;;;;;;;7.67;2.70;;;4.10;99.90;;;;;;4213535;28;20487;-77
2023/12/20 08:06:42;;;;;;;6.63;2.33;;;4.20;99.90;;;;;;4213681;28;20446;-77
2023/12/20 08:08:43;;;;;;;8.13;2.17;;;4.20;99.90;;;;;;4217336;28;20462;-78
2023/12/20 08:10:45;;;;;;;6.17;2.20;;;4.20;99.90;;;;;;4202578;28;20439;-77
2023/12/20 08:12:47;;;;;;;4.37;2.20;;;4.20;99.90;;;;;;4216559;28;20226;-78
2023/12/20 08:14:49;;;;;;;12.07;3.20;;;4.10;99.90;;;;;;4219448;28;20470;-80
2023/12/20 08:16:51;;;;;;;6.53;2.47;;;4.10;99.90;;;;;;4217185;28;20456;-77
2023/12/20 08:18:53;;;;;;;7.80;2.17;;;4.10;99.90;;;;;;4215670;28;20464;-76
2023/12/20 08:20:55;;;;;;;5.17;2.10;;;4.20;99.90;;;;;;4213719;28;21013;-81
2023/12/20 08:22:57;;;;;;;4.43;2.00;;;4.20;99.90;;;;;;4216775;28;20469;-77
2023/12/20 08:24:59;;;;;;;3.93;1.93;;;4.20;99.90;;;;;;4220381;28;20495;-79
2023/12/20 08:27:01;;;;;;;8.23;2.33;;;4.30;99.90;;;;;;4228189;28;20552;-81
2023/12/20 08:29:03;;;;;;;5.40;1.90;;;4.30;99.90;;;;;;4225645;28;20884;-81
2023/12/20 08:31:05;;;;;;;12.73;2.30;;;4.30;99.90;;;;;;4235954;28;20437;-83
2023/12/20 08:33:11;;;;;;;5.33;2.07;;;4.30;99.90;;;;;;4229755;28;20531;-80
2023/12/20 08:35:12;;;;;;;4.43;1.73;;;4.30;99.90;;;;;;4222112;28;20532;-80
2023/12/20 08:37:15;;;;;;;6.50;1.77;;;4.60;99.90;;;;;;4218493;28;20450;-80
2023/12/20 08:39:17;;;;;;;11.43;2.97;;;4.70;99.90;;;;;;4216061;28;20891;-79
2023/12/20 08:41:20;;;;;;;5.17;1.93;;;4.80;99.90;;;;;;4212872;28;20881;-79
2023/12/20 08:43:22;;;;;;;5.93;2.27;;;4.50;99.90;;;;;;4216036;28;20461;-80
2023/12/20 08:45:24;;;;;;;8.37;1.83;;;4.40;99.90;;;;;;4215762;28;20948;-79
2023/12/20 08:47:26;;;;;;;7.43;2.17;;;4.40;99.90;;;;;;4215642;28;20485;-79
2023/12/20 08:49:28;;;;;;;6.80;2.00;;;4.40;99.90;;;;;;4217110;28;20932;-78
2023/12/20 08:51:30;;;;;;;5.17;2.00;;;4.40;99.90;;;;;;4213855;28;20478;-80
2023/12/20 08:53:34;;;;;;;8.70;1.97;;;4.40;99.90;;;;;;4216771;28;21855;-80
2023/12/20 08:55:35;;;;;;;6.07;1.80;;;4.40;99.90;;;;;;4216488;28;20520;-80
2023/12/20 08:57:37;;;;;;;11.63;2.67;;;4.50;99.90;;;;;;4215442;28;20945;-79
2023/12/20 08:59:39;;;;;;;4.57;2.13;;;4.40;99.90;;;;;;4215773;28;20212;-79
2023/12/20 09:01:41;;;;;;;6.57;2.30;;;4.40;99.90;;;;;;4220727;28;20983;-79
2023/12/20 09:03:43;;;;;;;5.53;2.40;;;4.40;99.90;;;;;;4213849;28;20481;-79
2023/12/20 09:05:44;;;;;;;8.00;2.23;;;4.40;99.90;;;;;;4213887;28;20438;-81
2023/12/20 09:07:46;;;;;;;4.03;2.20;;;4.40;99.90;;;;;;4213759;28;20450;-81
2023/12/20 09:09:49;;;;;;;9.17;2.90;;;4.40;99.90;;;;;;4213598;28;20297;-80
2023/12/20 09:11:52;;;;;;;9.70;2.30;;;4.40;99.90;;;;;;4213958;28;20477;-82
2023/12/20 09:13:54;;;;;;;9.67;2.47;;;4.40;99.90;;;;;;4217221;28;20444;-81
2023/12/20 09:15:56;;;;;;;7.60;2.40;;;4.40;99.90;;;;;;4214795;28;20947;-80
2023/12/20 09:17:58;;;;;;;7.13;2.60;;;4.40;99.90;;;;;;4214487;28;20439;-80
2023/12/20 09:20:00;;;;;;;4.53;2.27;;;4.50;99.90;;;;;;4213391;28;20450;-79
2023/12/20 09:22:02;;;;;;;5.60;2.43;;;4.50;99.90;;;;;;4215565;28;20477;-80
2023/12/20 09:24:05;;;;;;;7.57;2.63;;;4.50;99.90;;;;;;4220483;28;20526;-80
2023/12/20 09:26:08;;;;;;;7.83;3.03;;;4.50;99.90;;;;;;4225753;28;20969;-80
2023/12/20 09:28:10;;;;;;;8.20;3.00;;;4.60;99.90;;;;;;4223677;28;20461;-80
2023/12/20 09:30:13;;;;;;;9.63;2.27;;;4.60;99.90;;;;;;4218006;28;20446;-79
2023/12/20 09:32:15;;;;;;;7.20;2.27;;;4.60;99.90;;;;;;4215969;28;20469;-82
2023/12/20 09:34:17;;;;;;;9.27;2.80;;;4.60;99.90;;;;;;4198467;28;20464;-80
2023/12/20 09:36:18;;;;;;;20.67;6.57;;;4.60;99.90;;;;;;4212523;28;20545;-81
2023/12/20 09:38:19;;;;;;;9.17;2.90;;;4.60;99.90;;;;;;4212277;28;20506;-79
2023/12/20 09:40:23;;;;;;;8.33;2.50;;;4.70;99.90;;;;;;4211934;28;20443;-79
2023/12/20 09:42:44;;;;;;;6.03;2.73;;;4.60;99.90;;;;;;4213495;28;20760;-81
2023/12/20 09:44:46;;;;;;;6.60;2.37;;;4.70;99.90;;;;;;4212068;28;20896;-79
2023/12/20 09:46:51;;;;;;;6.47;2.60;;;4.80;99.90;;;;;;4214078;28;20450;-79
2023/12/20 09:48:56;;;;;;;9.23;2.80;;;4.70;99.90;;;;;;4197636;28;20442;-80
2023/12/20 09:50:58;;;;;;;11.87;2.97;;;4.80;99.90;;;;;;4211776;28;20942;-80
2023/12/20 09:53:02;;;;;;;6.13;2.70;;;4.80;99.90;;;;;;4214622;28;20445;-80
2023/12/20 09:55:09;;;;;;;7.63;2.53;;;4.90;99.90;;;;;;4218116;28;20432;-80
2023/12/20 09:57:11;;;;;;;10.60;3.20;;;4.90;99.90;;;;;;4213699;28;20516;-80
2023/12/20 09:59:14;;;;;;;6.97;3.37;;;4.90;99.90;;;;;;4212890;28;20876;-79
2023/12/20 10:01:20;;;;;;;5.77;2.83;;;5.00;99.90;;;;;;4213283;28;21068;-79
2023/12/20 10:03:26;;;;;;;6.23;2.83;;;5.00;99.90;;;;;;4212516;28;20450;-79
2023/12/20 10:05:28;;;;;;;14.17;3.57;;;5.10;99.90;;;;;;4217717;28;20507;-80
2023/12/20 10:07:30;;;;;;;6.50;2.57;;;5.20;99.90;;;;;;4224697;28;20468;-81
2023/12/20 10:09:33;;;;;;;9.47;3.40;;;5.20;99.90;;;;;;4215807;28;20512;-81
2023/12/20 10:11:37;;;;;;;9.47;3.50;;;5.30;99.90;;;;;;4212607;28;20835;-80
2023/12/20 10:13:41;;;;;;;9.03;3.33;;;5.30;99.90;;;;;;4216499;28;20446;-80
2023/12/20 10:15:44;;;;;;;9.23;2.87;;;5.30;99.90;;;;;;4214331;28;20544;-80
2023/12/20 10:17:48;;;;;;;5.83;2.70;;;5.40;99.90;;;;;;4214986;28;20451;-82
2023/12/20 10:19:50;;;;;;;11.60;3.20;;;5.50;99.90;;;;;;4214794;28;20550;-77
2023/12/20 10:21:52;;;;;;;7.90;2.83;;;5.50;99.90;;;;;;4214283;28;20992;-76
2023/12/20 10:23:54;;;;;;;10.30;2.77;;;5.50;99.90;;;;;;4211470;28;20448;-77
2023/12/20 10:25:59;;;;;;;5.33;2.40;;;5.40;99.90;;;;;;4212616;28;20469;-80
2023/12/20 10:28:12;;;;;;;4.30;2.27;;;5.40;99.90;;;;;;4211561;28;20980;-77
2023/12/20 10:30:15;;;;;;;8.10;2.30;;;5.40;99.90;;;;;;4213656;28;20507;-77
2023/12/20 10:32:25;;;;;;;8.13;2.57;;;5.40;99.90;;;;;;4216378;28;20233;-79
2023/12/20 10:34:27;;;;;;;7.67;2.90;;;5.50;99.90;;;;;;4213804;28;20616;-79
2023/12/20 10:36:31;;;;;;;8.13;3.17;;;5.50;99.90;;;;;;4214384;28;20525;-78
2023/12/20 10:38:32;;;;;;;7.37;2.10;;;5.60;99.90;;;;;;4214429;28;20203;-76
2023/12/20 10:40:37;;;;;;;7.47;2.20;;;5.60;99.90;;;;;;4209947;28;20873;-77